createdAt,value
2022-10-04T00:00:47.230Z,88.10
2022-10-04T00:02:51.958Z,87.80
2022-10-04T00:05:03.126Z,87.50
2022-10-04T00:07:15.598Z,87.20
2022-10-04T00:09:23.366Z,86.90
2022-10-04T00:11:31.072Z,86.90
2022-10-04T00:13:35.903Z,86.90
2022-10-04T00:15:40.297Z,86.90
2022-10-04T00:17:43.135Z,87.20
2022-10-04T00:19:49.853Z,87.30
2022-10-04T00:22:17.375Z,87.30
2022-10-04T00:24:22.894Z,87.30
2022-10-04T00:26:59.229Z,87.30
2022-10-04T00:29:30.549Z,87.30
2022-10-04T00:31:33.571Z,87.40
2022-10-04T00:33:37.388Z,87.10
2022-10-04T00:35:51.720Z,87.40
2022-10-04T00:37:58.648Z,87.30
2022-10-04T00:40:10.667Z,87.20
2022-10-04T00:42:37.941Z,86.90
2022-10-04T00:44:47.965Z,87.00
2022-10-04T00:46:52.737Z,86.20
2022-10-04T00:48:59.256Z,86.00
2022-10-04T00:51:12.604Z,85.70
2022-10-04T00:53:23.028Z,85.30
2022-10-04T00:55:34.524Z,85.00
2022-10-04T00:57:43.401Z,84.60
2022-10-04T00:59:49.345Z,84.50
2022-10-04T01:01:56.347Z,84.50
2022-10-04T01:04:02.642Z,84.50
2022-10-04T01:06:10.827Z,84.40
2022-10-04T01:08:16.810Z,84.10
2022-10-04T01:10:22.768Z,84.00
2022-10-04T01:12:37.330Z,84.00
2022-10-04T01:14:48.894Z,83.90
2022-10-04T01:16:52.959Z,83.80
2022-10-04T01:18:56.184Z,83.70
2022-10-04T01:21:03.978Z,83.70
2022-10-04T01:23:10.932Z,83.60
2022-10-04T01:25:47.782Z,83.60
2022-10-04T01:27:50.745Z,83.50
2022-10-04T01:29:53.822Z,83.60
2022-10-04T01:31:59.014Z,83.60
2022-10-04T01:34:03.108Z,83.60
2022-10-04T01:36:06.139Z,84.20
2022-10-04T01:38:10.392Z,83.60
2022-10-04T01:40:13.562Z,83.50
2022-10-04T01:42:22.542Z,83.80
2022-10-04T01:44:33.028Z,84.10
2022-10-04T01:46:38.263Z,84.10
2022-10-04T01:48:44.683Z,84.20
2022-10-04T01:50:52.408Z,84.20
2022-10-04T01:53:01.296Z,84.40
2022-10-04T01:55:10.654Z,84.30
2022-10-04T01:57:17.914Z,84.40
2022-10-04T01:59:25.324Z,84.30
2022-10-04T02:01:31.755Z,84.30
2022-10-04T02:03:38.640Z,84.40
2022-10-04T02:05:45.349Z,84.50
2022-10-04T02:07:49.670Z,84.60
2022-10-04T02:09:59.453Z,84.80
2022-10-04T02:12:04.187Z,85.00
2022-10-04T02:14:15.681Z,85.00
2022-10-04T02:16:19.943Z,85.10
2022-10-04T02:18:24.918Z,85.00
2022-10-04T02:20:28.546Z,84.80
2022-10-04T02:22:31.954Z,84.90
2022-10-04T02:24:41.821Z,85.00
2022-10-04T02:26:50.622Z,85.10
2022-10-04T02:28:54.802Z,85.10
2022-10-04T02:31:17.891Z,85.80
2022-10-04T02:33:20.849Z,85.20
2022-10-04T02:35:24.882Z,84.90
2022-10-04T02:37:30.041Z,84.80
2022-10-04T02:39:38.201Z,84.60
2022-10-04T02:41:45.159Z,84.60
2022-10-04T02:43:52.516Z,84.50
2022-10-04T02:46:02.603Z,84.40
2022-10-04T02:48:13.383Z,84.20
2022-10-04T02:50:29.596Z,84.40
2022-10-04T02:52:39.234Z,84.30
2022-10-04T02:54:49.837Z,84.40
2022-10-04T02:56:54.031Z,84.40
2022-10-04T02:59:02.614Z,84.20
2022-10-04T03:01:06.919Z,84.30
2022-10-04T03:03:18.708Z,84.20
2022-10-04T03:05:21.803Z,84.10
2022-10-04T03:07:25.274Z,84.10
2022-10-04T03:09:30.019Z,84.00
2022-10-04T03:11:38.942Z,84.00
2022-10-04T03:13:45.918Z,83.90
2022-10-04T03:15:50.523Z,83.90
2022-10-04T03:17:54.921Z,83.80
2022-10-04T03:19:58.232Z,83.90
2022-10-04T03:22:03.769Z,83.80
2022-10-04T03:24:07.723Z,83.70
2022-10-04T03:26:21.739Z,83.80
2022-10-04T03:28:24.648Z,84.00
2022-10-04T03:30:27.651Z,83.90
2022-10-04T03:32:32.064Z,83.90
2022-10-04T03:34:38.286Z,83.90
2022-10-04T03:36:41.557Z,83.90
2022-10-04T03:38:45.644Z,83.80
2022-10-04T03:40:53.253Z,83.70
2022-10-04T03:42:56.600Z,83.60
2022-10-04T03:45:02.815Z,84.40
2022-10-04T03:47:11.104Z,83.90
2022-10-04T03:49:18.947Z,83.90
2022-10-04T03:51:24.544Z,83.90
2022-10-04T03:53:32.118Z,83.90
2022-10-04T03:55:38.168Z,83.90
2022-10-04T03:57:41.682Z,84.00
2022-10-04T03:59:44.630Z,84.00
2022-10-04T04:01:50.919Z,83.90
2022-10-04T04:04:00.979Z,84.00
2022-10-04T04:06:10.067Z,84.00
2022-10-04T04:08:20.616Z,83.90
2022-10-04T04:10:27.250Z,84.10
2022-10-04T04:12:38.876Z,84.00
2022-10-04T04:14:43.309Z,84.20
2022-10-04T04:16:46.504Z,84.20
2022-10-04T04:18:50.596Z,84.10
2022-10-04T04:20:58.972Z,84.10
2022-10-04T04:23:06.363Z,84.20
2022-10-04T04:25:16.686Z,84.10
2022-10-04T04:27:22.431Z,84.10
2022-10-04T04:29:33.131Z,84.20
2022-10-04T04:31:41.498Z,84.10
2022-10-04T04:33:50.217Z,84.10
2022-10-04T04:35:56.733Z,84.20
2022-10-04T04:38:17.637Z,84.10
2022-10-04T04:40:25.330Z,84.00
2022-10-04T04:42:32.056Z,84.20
2022-10-04T04:44:35.038Z,84.30
2022-10-04T04:46:40.149Z,84.20
2022-10-04T04:48:45.205Z,84.20
2022-10-04T04:50:53.982Z,84.20
2022-10-04T04:53:04.115Z,84.20
2022-10-04T04:55:16.794Z,84.10
2022-10-04T04:57:21.369Z,84.10
2022-10-04T04:59:27.154Z,84.10
2022-10-04T05:01:34.514Z,84.00
2022-10-04T05:03:37.324Z,84.10
2022-10-04T05:05:40.073Z,84.10
2022-10-04T05:07:43.557Z,84.00
2022-10-04T05:09:46.358Z,84.10
2022-10-04T05:11:49.582Z,84.10
2022-10-04T05:13:57.985Z,84.20
2022-10-04T05:16:02.551Z,84.30
2022-10-04T05:18:22.258Z,84.30
2022-10-04T05:20:29.679Z,84.30
2022-10-04T05:22:34.941Z,84.50
2022-10-04T05:24:40.686Z,84.60
2022-10-04T05:26:44.193Z,84.40
2022-10-04T05:28:47.047Z,84.40
2022-10-04T05:31:05.380Z,84.40
2022-10-04T05:33:10.561Z,84.40
2022-10-04T05:35:20.954Z,84.20
2022-10-04T05:37:32.988Z,84.20
2022-10-04T05:39:43.736Z,84.30
2022-10-04T05:41:55.088Z,84.30
2022-10-04T05:43:58.194Z,84.40
2022-10-04T05:46:29.862Z,84.30
2022-10-04T05:48:32.817Z,84.90
2022-10-04T05:50:40.545Z,84.30
2022-10-04T05:52:44.749Z,84.40
2022-10-04T05:54:47.817Z,84.40
2022-10-04T05:57:30.311Z,84.50
2022-10-04T06:00:03.236Z,84.40
2022-10-04T06:02:21.269Z,84.40
2022-10-04T06:04:34.925Z,84.50
2022-10-04T06:06:44.647Z,84.40
2022-10-04T06:08:59.931Z,84.20
2022-10-04T06:11:14.319Z,84.30
2022-10-04T06:13:31.580Z,84.40
2022-10-04T06:15:54.101Z,84.40
2022-10-04T06:18:16.783Z,84.40
2022-10-04T06:20:45.851Z,84.30
2022-10-04T06:22:53.720Z,84.20
2022-10-04T06:24:59.781Z,84.30
2022-10-04T06:27:12.002Z,84.40
2022-10-04T06:29:20.581Z,84.20
2022-10-04T06:31:59.480Z,84.30
2022-10-04T06:34:23.021Z,84.30
2022-10-04T06:36:51.296Z,84.20
2022-10-04T06:39:16.180Z,84.20
2022-10-04T06:41:42.412Z,84.20
2022-10-04T06:44:05.511Z,84.20
2022-10-04T06:46:16.794Z,84.20
2022-10-04T06:48:42.168Z,84.20
2022-10-04T06:50:51.294Z,84.20
2022-10-04T06:53:09.793Z,84.20
2022-10-04T06:55:47.066Z,84.20
2022-10-04T06:58:18.125Z,84.20
2022-10-04T07:00:23.765Z,84.20
2022-10-04T07:02:32.072Z,84.10
2022-10-04T07:05:07.074Z,84.10
2022-10-04T07:07:35.873Z,84.20
2022-10-04T07:09:41.928Z,84.00
2022-10-04T07:11:50.628Z,84.00
2022-10-04T07:13:58.899Z,84.00
2022-10-04T07:16:06.823Z,84.10
2022-10-04T07:18:14.290Z,84.00
2022-10-04T07:20:22.292Z,84.10
2022-10-04T07:22:32.100Z,84.00
2022-10-04T07:24:53.449Z,84.00
2022-10-04T07:27:00.754Z,83.90
2022-10-04T07:29:38.743Z,84.10
2022-10-04T07:31:47.412Z,84.20
2022-10-04T07:33:59.178Z,84.60
2022-10-04T07:36:08.734Z,84.30
2022-10-04T07:38:25.535Z,84.20
2022-10-04T07:40:32.609Z,84.10
2022-10-04T07:42:41.391Z,84.10
2022-10-04T07:44:48.471Z,84.30
2022-10-04T07:46:55.583Z,84.30
2022-10-04T07:48:58.680Z,84.20
2022-10-04T07:51:09.964Z,84.20
2022-10-04T07:53:19.105Z,84.20
2022-10-04T07:55:28.725Z,84.00
2022-10-04T07:57:41.297Z,84.20
2022-10-04T07:59:55.776Z,84.30
2022-10-04T08:02:08.469Z,84.30
2022-10-04T08:04:20.479Z,84.20
2022-10-04T08:06:31.450Z,84.40
2022-10-04T08:08:50.166Z,84.10
2022-10-04T08:11:07.122Z,83.90
2022-10-04T08:13:20.401Z,84.20
2022-10-04T08:15:35.683Z,84.00
2022-10-04T08:17:51.131Z,84.20
2022-10-04T08:20:02.359Z,84.10
2022-10-04T08:22:14.913Z,84.20
2022-10-04T08:24:26.918Z,84.20
2022-10-04T08:26:48.887Z,84.30
2022-10-04T08:29:19.155Z,84.10
2022-10-04T08:31:34.787Z,83.50
2022-10-04T08:33:54.601Z,83.60
2022-10-04T08:36:09.914Z,84.00
2022-10-04T08:38:42.300Z,84.30
2022-10-04T08:41:27.147Z,83.90
2022-10-04T08:43:59.438Z,84.30
2022-10-04T08:46:23.105Z,84.50
2022-10-04T08:49:15.852Z,84.40
2022-10-04T08:51:53.149Z,84.20
2022-10-04T08:54:37.507Z,83.80
2022-10-04T08:56:59.597Z,83.90
2022-10-04T08:59:28.230Z,84.20
2022-10-04T09:01:57.145Z,83.90
2022-10-04T09:04:40.247Z,83.80
2022-10-04T09:06:53.738Z,83.40
2022-10-04T09:09:56.261Z,83.60
2022-10-04T09:12:23.252Z,83.50
2022-10-04T09:14:58.571Z,82.80
2022-10-04T09:17:21.817Z,83.40
2022-10-04T09:19:40.731Z,83.10
2022-10-04T09:22:01.271Z,82.30
2022-10-04T09:24:34.072Z,81.30
2022-10-04T09:26:45.949Z,81.90
2022-10-04T09:29:10.505Z,81.90
2022-10-04T09:31:38.843Z,81.80
2022-10-04T09:34:06.421Z,81.80
2022-10-04T09:36:52.844Z,81.80
2022-10-04T09:39:30.481Z,80.70
2022-10-04T09:41:53.992Z,81.30
2022-10-04T09:44:26.657Z,81.10
2022-10-04T09:46:50.346Z,80.80
2022-10-04T09:49:10.881Z,80.70
2022-10-04T09:51:54.966Z,80.10
2022-10-04T09:54:28.064Z,80.30
2022-10-04T09:56:50.220Z,79.90
2022-10-04T09:59:27.062Z,80.00
2022-10-04T10:01:38.926Z,80.20
2022-10-04T10:04:04.282Z,79.10
2022-10-04T10:06:43.977Z,79.40
2022-10-04T10:09:00.733Z,79.30
2022-10-04T10:11:31.530Z,79.00
2022-10-04T10:13:59.190Z,79.20
2022-10-04T10:16:12.754Z,78.80
2022-10-04T10:18:26.606Z,78.70
2022-10-04T10:20:53.901Z,76.60
2022-10-04T10:23:21.812Z,77.50
2022-10-04T10:25:41.537Z,77.60
2022-10-04T10:28:05.983Z,76.70
2022-10-04T10:30:26.267Z,77.50
2022-10-04T10:33:12.764Z,76.70
2022-10-04T10:35:29.566Z,76.30
2022-10-04T10:37:47.878Z,77.50
2022-10-04T10:40:17.309Z,77.70
2022-10-04T10:42:48.759Z,77.20
2022-10-04T10:45:16.998Z,75.90
2022-10-04T10:47:31.550Z,76.10
2022-10-04T10:49:48.552Z,76.80
2022-10-04T10:52:25.589Z,75.50
2022-10-04T10:54:50.367Z,75.60
2022-10-04T10:57:06.807Z,74.40
2022-10-04T10:59:33.169Z,75.00
2022-10-04T11:01:56.233Z,74.60
2022-10-04T11:04:18.755Z,74.70
2022-10-04T11:06:53.939Z,74.30
2022-10-04T11:09:27.208Z,74.40
2022-10-04T11:11:58.516Z,73.20
2022-10-04T11:14:43.914Z,74.20
2022-10-04T11:17:23.199Z,74.20
2022-10-04T11:20:05.801Z,74.10
2022-10-04T11:23:10.873Z,74.00
2022-10-04T11:25:37.116Z,73.90
2022-10-04T11:27:51.183Z,74.20
2022-10-04T11:30:23.501Z,73.90
2022-10-04T11:33:02.727Z,73.70
2022-10-04T11:35:47.546Z,73.30
2022-10-04T11:38:04.846Z,73.30
2022-10-04T11:40:30.399Z,74.20
2022-10-04T11:42:49.784Z,73.90
2022-10-04T11:45:15.291Z,74.00
2022-10-04T11:47:43.121Z,73.60
2022-10-04T11:49:59.532Z,74.10
2022-10-04T11:52:34.311Z,74.30
2022-10-04T11:54:57.744Z,73.90
2022-10-04T11:57:20.642Z,73.00
2022-10-04T11:59:40.648Z,73.60
2022-10-04T12:02:04.402Z,73.70
2022-10-04T12:04:32.270Z,73.80
2022-10-04T12:06:48.640Z,73.90
2022-10-04T12:09:05.295Z,74.10
2022-10-04T12:12:05.641Z,73.60
2022-10-04T12:14:26.030Z,74.20
2022-10-04T12:17:08.552Z,74.40
2022-10-04T12:19:40.531Z,74.70
2022-10-04T12:21:59.083Z,74.30
2022-10-04T12:24:11.741Z,74.50
2022-10-04T12:26:37.128Z,74.20
2022-10-04T12:29:00.891Z,74.40
2022-10-04T12:31:17.323Z,74.70
2022-10-04T12:33:25.268Z,74.50
2022-10-04T12:35:36.380Z,74.40
2022-10-04T12:38:05.691Z,74.70
2022-10-04T12:40:33.131Z,74.10
2022-10-04T12:42:47.897Z,73.90
2022-10-04T12:45:04.545Z,73.80
2022-10-04T12:47:44.685Z,73.70
2022-10-04T12:49:56.324Z,73.50
2022-10-04T12:52:06.236Z,73.50
2022-10-04T12:54:23.093Z,74.20
2022-10-04T12:56:45.767Z,74.00
2022-10-04T12:59:17.230Z,74.20
2022-10-04T13:01:33.556Z,73.90
2022-10-04T13:03:59.238Z,73.70
2022-10-04T13:06:11.459Z,73.60
2022-10-04T13:08:45.845Z,73.50
2022-10-04T13:11:07.070Z,73.10
2022-10-04T13:13:52.078Z,73.30
2022-10-04T13:18:40.965Z,72.60
2022-10-04T13:20:54.775Z,72.40
2022-10-04T13:23:04.017Z,72.40
2022-10-04T13:25:27.219Z,72.60
2022-10-04T13:27:38.851Z,71.90
2022-10-04T13:29:49.264Z,72.30
2022-10-04T13:32:01.234Z,72.20
2022-10-04T13:34:16.610Z,72.30
2022-10-04T13:36:25.241Z,72.40
2022-10-04T13:39:07.263Z,72.40
2022-10-04T13:41:26.110Z,71.60
2022-10-04T13:43:48.206Z,71.90
2022-10-04T13:46:07.557Z,71.80
2022-10-04T13:48:29.809Z,72.30
2022-10-04T13:50:52.311Z,71.90
2022-10-04T13:53:21.424Z,71.50
2022-10-04T13:55:50.776Z,71.50
2022-10-04T13:58:00.574Z,71.50
2022-10-04T14:00:06.717Z,71.90
2022-10-04T14:02:33.195Z,71.10
2022-10-04T14:04:58.669Z,71.60
2022-10-04T14:07:23.760Z,71.90
2022-10-04T14:09:56.826Z,71.90
2022-10-04T14:12:35.156Z,71.50
2022-10-04T14:15:06.560Z,71.50
2022-10-04T14:17:34.338Z,71.20
2022-10-04T14:20:01.462Z,71.30
2022-10-04T14:22:33.313Z,70.70
2022-10-04T14:25:10.339Z,70.90
2022-10-04T14:27:44.707Z,70.80
2022-10-04T14:30:08.219Z,71.00
2022-10-04T14:32:35.902Z,71.20
2022-10-04T14:35:00.524Z,71.40
2022-10-04T14:37:30.175Z,70.60
2022-10-04T14:40:00.317Z,70.70
2022-10-04T14:42:31.169Z,71.20
2022-10-04T14:45:21.666Z,70.60
2022-10-04T14:47:48.917Z,70.80
2022-10-04T14:50:07.507Z,70.30
2022-10-04T14:52:31.064Z,70.60
2022-10-04T14:54:46.430Z,70.60
2022-10-04T14:57:01.635Z,70.40
2022-10-04T14:59:22.288Z,70.30
2022-10-04T15:01:27.763Z,70.40
2022-10-04T15:03:36.812Z,69.90
2022-10-04T15:06:03.344Z,70.00
2022-10-04T15:08:44.134Z,70.10
2022-10-04T15:10:51.174Z,69.90
2022-10-04T15:13:12.501Z,70.20
2022-10-04T15:15:32.782Z,70.00
2022-10-04T15:17:40.092Z,70.30
2022-10-04T15:20:00.914Z,71.10
2022-10-04T15:22:12.549Z,70.70
2022-10-04T15:24:25.648Z,70.80
2022-10-04T15:26:59.510Z,70.70
2022-10-04T15:29:15.842Z,70.70
2022-10-04T15:31:25.228Z,70.50
2022-10-04T15:33:37.022Z,70.90
2022-10-04T15:35:49.447Z,71.00
2022-10-04T15:37:59.579Z,71.00
2022-10-04T15:40:27.693Z,70.50
2022-10-04T15:42:33.625Z,70.80
2022-10-04T15:45:01.600Z,71.00
2022-10-04T15:47:15.870Z,71.00
2022-10-04T15:49:31.647Z,71.30
2022-10-04T15:51:51.067Z,71.10
2022-10-04T15:54:13.489Z,71.10
2022-10-04T15:56:34.061Z,71.10
2022-10-04T15:58:53.345Z,70.70
2022-10-04T16:01:19.590Z,70.90
2022-10-04T16:03:35.407Z,71.20
2022-10-04T16:05:43.265Z,71.40
2022-10-04T16:08:07.701Z,71.30
2022-10-04T16:10:25.563Z,71.00
2022-10-04T16:12:33.124Z,71.10
2022-10-04T16:14:56.329Z,71.00
2022-10-04T16:17:33.335Z,71.10
2022-10-04T16:19:59.198Z,71.00
2022-10-04T16:22:16.064Z,71.20
2022-10-04T16:24:40.803Z,71.20
2022-10-04T16:27:20.767Z,71.40
2022-10-04T16:29:31.373Z,71.50
2022-10-04T16:31:55.602Z,71.40
2022-10-04T16:34:03.797Z,71.60
2022-10-04T16:36:14.401Z,71.80
2022-10-04T16:38:24.114Z,72.00
2022-10-04T16:40:35.792Z,72.20
2022-10-04T16:43:01.230Z,72.30
2022-10-04T16:45:39.806Z,72.30
2022-10-04T16:47:56.411Z,72.30
2022-10-04T16:50:01.770Z,72.40
2022-10-04T16:52:37.216Z,72.70
2022-10-04T16:55:02.035Z,72.60
2022-10-04T16:57:15.569Z,73.00
2022-10-04T16:59:46.951Z,72.90
2022-10-04T17:02:19.762Z,73.10
2022-10-04T17:04:55.575Z,73.40
2022-10-04T17:07:00.683Z,73.60
2022-10-04T17:09:18.945Z,73.60
2022-10-04T17:11:44.951Z,73.50
2022-10-04T17:13:56.701Z,73.70
2022-10-04T17:16:12.791Z,73.80
2022-10-04T17:18:28.160Z,73.60
2022-10-04T17:20:45.870Z,74.00
2022-10-04T17:23:00.301Z,74.10
2022-10-04T17:25:17.213Z,74.10
2022-10-04T17:27:46.354Z,73.80
2022-10-04T17:29:59.913Z,73.90
2022-10-04T17:32:17.334Z,73.90
2022-10-04T17:34:30.228Z,73.70
2022-10-04T17:36:40.962Z,73.90
2022-10-04T17:38:52.371Z,74.00
2022-10-04T17:41:00.775Z,74.00
2022-10-04T17:43:15.531Z,74.10
2022-10-04T17:45:51.863Z,73.90
2022-10-04T17:48:20.128Z,74.00
2022-10-04T17:50:46.859Z,74.10
2022-10-04T17:53:13.324Z,74.10
2022-10-04T17:55:19.663Z,74.10
2022-10-04T17:57:27.147Z,74.50
2022-10-04T17:59:39.154Z,74.60
2022-10-04T18:01:46.214Z,74.80
2022-10-04T18:03:54.726Z,74.90
2022-10-04T18:06:03.002Z,75.00
2022-10-04T18:08:14.045Z,75.00
2022-10-04T18:10:27.314Z,75.20
2022-10-04T18:12:35.315Z,75.30
2022-10-04T18:15:01.422Z,75.40
2022-10-04T18:17:07.301Z,75.60
2022-10-04T18:19:38.843Z,75.60
2022-10-04T18:21:49.949Z,75.90
2022-10-04T18:23:55.691Z,75.80
2022-10-04T18:26:00.800Z,75.90
2022-10-04T18:28:12.815Z,76.20
2022-10-04T18:30:18.863Z,76.50
2022-10-04T18:32:33.758Z,76.60
2022-10-04T18:34:38.122Z,76.60
2022-10-04T18:36:52.461Z,76.60
2022-10-04T18:39:16.522Z,76.60
2022-10-04T18:41:21.882Z,76.80
2022-10-04T18:43:27.833Z,76.70
2022-10-04T18:45:32.332Z,77.40
2022-10-04T18:47:39.544Z,76.80
2022-10-04T18:49:51.006Z,76.90
2022-10-04T18:52:21.178Z,77.00
2022-10-04T18:54:32.316Z,77.40
2022-10-04T18:56:40.613Z,77.30
2022-10-04T18:59:15.995Z,77.20
2022-10-04T19:01:57.214Z,77.40
2022-10-04T19:04:08.444Z,77.30
2022-10-04T19:06:20.245Z,77.10
2022-10-04T19:08:44.713Z,77.50
2022-10-04T19:10:51.460Z,77.50
2022-10-04T19:13:04.271Z,77.30
2022-10-04T19:15:20.785Z,77.30
2022-10-04T19:17:28.877Z,77.40
2022-10-04T19:19:56.335Z,77.40
2022-10-04T19:22:11.017Z,77.30
2022-10-04T19:24:36.959Z,77.20
2022-10-04T19:26:42.115Z,77.00
2022-10-04T19:28:45.937Z,76.70
2022-10-04T19:31:14.566Z,76.90
2022-10-04T19:33:25.353Z,76.90
2022-10-04T19:35:46.066Z,76.80
2022-10-04T19:38:00.919Z,77.10
2022-10-04T19:40:16.765Z,77.10
2022-10-04T19:42:27.102Z,77.10
2022-10-04T19:44:38.438Z,77.10
2022-10-04T19:46:45.026Z,77.10
2022-10-04T19:48:50.668Z,77.30
2022-10-04T19:50:59.641Z,77.40
2022-10-04T19:53:15.934Z,77.70
2022-10-04T19:55:23.996Z,77.70
2022-10-04T19:57:37.726Z,77.70
2022-10-04T19:59:42.281Z,77.60
2022-10-04T20:01:45.382Z,77.80
2022-10-04T20:04:09.474Z,77.60
2022-10-04T20:06:21.811Z,77.50
2022-10-04T20:08:55.696Z,77.70
2022-10-04T20:11:16.198Z,77.90
2022-10-04T20:13:25.190Z,77.80
2022-10-04T20:15:46.444Z,77.80
2022-10-04T20:17:50.743Z,78.00
2022-10-04T20:19:53.603Z,78.00
2022-10-04T20:21:56.677Z,78.10
2022-10-04T20:24:01.639Z,78.00
2022-10-04T20:26:07.103Z,78.20
2022-10-04T20:28:10.629Z,78.30
2022-10-04T20:30:14.808Z,78.20
2022-10-04T20:32:51.242Z,78.10
2022-10-04T20:34:55.355Z,78.00
2022-10-04T20:36:58.275Z,78.00
2022-10-04T20:39:04.875Z,78.00
2022-10-04T20:42:04.242Z,78.10
2022-10-04T20:44:08.886Z,78.30
2022-10-04T20:46:23.713Z,78.10
2022-10-04T20:48:28.974Z,78.20
2022-10-04T20:50:43.252Z,78.20
2022-10-04T20:52:48.136Z,78.20
2022-10-04T20:54:53.508Z,78.30
2022-10-04T20:56:56.318Z,78.30
2022-10-04T20:59:01.235Z,78.50
2022-10-04T21:01:16.767Z,78.60
2022-10-04T21:03:20.671Z,78.90
2022-10-04T21:05:25.565Z,78.70
2022-10-04T21:07:28.461Z,78.40
2022-10-04T21:09:32.480Z,78.30
2022-10-04T21:11:47.133Z,78.30
2022-10-04T21:13:56.373Z,78.30
2022-10-04T21:16:00.491Z,78.30
2022-10-04T21:18:06.064Z,78.10
2022-10-04T21:20:15.431Z,78.30
2022-10-04T21:22:37.915Z,78.60
2022-10-04T21:24:42.554Z,78.60
2022-10-04T21:26:57.612Z,78.60
2022-10-04T21:29:01.569Z,78.80
2022-10-04T21:31:04.955Z,78.70
2022-10-04T21:33:07.800Z,78.90
2022-10-04T21:35:11.219Z,78.60
2022-10-04T21:37:14.163Z,78.50
2022-10-04T21:39:16.968Z,78.30
2022-10-04T21:41:19.791Z,78.40
2022-10-04T21:43:24.910Z,78.30
2022-10-04T21:45:27.740Z,78.30
2022-10-04T21:47:30.578Z,78.10
2022-10-04T21:49:33.386Z,78.30
2022-10-04T21:51:37.464Z,78.50
2022-10-04T21:53:40.264Z,78.60
2022-10-04T21:55:43.077Z,78.70
2022-10-04T21:57:45.925Z,78.80
2022-10-04T21:59:50.056Z,78.70
2022-10-04T22:01:52.953Z,78.80
2022-10-04T22:03:55.779Z,78.90
2022-10-04T22:05:58.544Z,78.90
2022-10-04T22:08:01.791Z,79.00
2022-10-04T22:10:05.154Z,79.30
2022-10-04T22:12:08.008Z,79.30
2022-10-04T22:14:10.927Z,79.50
2022-10-04T22:16:15.208Z,79.50
2022-10-04T22:18:18.065Z,79.80
2022-10-04T22:20:20.929Z,79.90
2022-10-04T22:22:23.777Z,79.60
2022-10-04T22:24:26.640Z,79.80
2022-10-04T22:26:29.531Z,80.00
2022-10-04T22:28:34.391Z,80.00
2022-10-04T22:30:37.266Z,80.00
2022-10-04T22:32:41.471Z,80.00
2022-10-04T22:34:44.322Z,80.30
2022-10-04T22:36:48.785Z,80.20
2022-10-04T22:38:57.947Z,80.20
2022-10-04T22:41:01.583Z,80.10
2022-10-04T22:43:04.382Z,80.00
2022-10-04T22:45:10.282Z,80.90
2022-10-04T22:47:14.916Z,80.70
2022-10-04T22:49:22.425Z,80.90
2022-10-04T22:51:29.156Z,80.70
2022-10-04T22:53:32.018Z,80.40
2022-10-04T22:55:35.576Z,80.10
2022-10-04T22:57:38.466Z,80.10
2022-10-04T22:59:43.646Z,80.00
2022-10-04T23:01:47.772Z,80.30
2022-10-04T23:03:50.804Z,79.60
2022-10-04T23:05:54.985Z,79.70
2022-10-04T23:07:57.781Z,79.80
2022-10-04T23:10:00.559Z,79.80
2022-10-04T23:12:03.799Z,79.80
2022-10-04T23:14:06.636Z,79.80
2022-10-04T23:16:14.983Z,79.70
2022-10-04T23:18:19.323Z,79.60
2022-10-04T23:20:22.933Z,79.70
2022-10-04T23:22:30.842Z,79.90
2022-10-04T23:24:33.671Z,79.70
2022-10-04T23:26:39.736Z,79.60
2022-10-04T23:28:42.654Z,79.60
2022-10-04T23:30:46.918Z,79.60
2022-10-04T23:32:51.697Z,79.40
2022-10-04T23:34:56.795Z,79.30
2022-10-04T23:37:00.104Z,79.20
2022-10-04T23:39:04.373Z,79.30
2022-10-04T23:41:10.915Z,79.40
2022-10-04T23:43:17.970Z,79.40
2022-10-04T23:45:22.911Z,79.40
2022-10-04T23:47:33.913Z,79.60
2022-10-04T23:49:37.042Z,79.70
2022-10-04T23:51:40.620Z,79.80
2022-10-04T23:53:44.595Z,79.60
2022-10-04T23:55:48.824Z,79.70
2022-10-04T23:57:52.019Z,80.00
2022-10-04T23:59:54.914Z,80.60
